Naikai2 — JD2433 — position and weather

sailwx.info

Track history (hours):
 
Tides and Currents Weather Stations Pressure Air Temp Water Temp Dewpoint Dewpoint Depression Visibility Wind Speed Wind Dir Waves Ship Positions

Naikai2

Last reported at 2018-Apr-24 02:56 UTC. Time now 2018-Apr-24 22:54 UTC.
Position N 34°39' E 135°10'.

Length 28 m; draft 2.2 m.

Type: Other ship. MMSI: 431000283.

Date/timePositionNaut miles runAvg speedWind from/ knotsBaromVisibWave heightAir tempDewpointWater temp
2018-Apr-24 02:56N 34°39' E 135°10'1 3.1
2018-Apr-24 02:30N 34°40' E 135°11'5 9.9
2018-Apr-24 02:00N 34°38' E 135°16'815.4
2018-Apr-24 01:31N 34°34' E 135°24'1 1.0
2018-Apr-24 01:00N 34°33' E 135°24'4 7.1
2018-Apr-24 00:30N 34°33' E 135°20'4 8.4
2018-Apr-24 00:00N 34°31' E 135°15'611.6
2018-Apr-23 23:30N 34°27' E 135°10'612.4
2018-Apr-23 23:00N 34°23' E 135°05'713.8
2018-Apr-23 22:30N 34°18' E 134°60'612.0
2018-Apr-23 22:00N 34°12' E 134°60'2 3.5
2018-Apr-23 21:30N 34°13' E 135°01'713.7
2018-Apr-23 21:01N 34°19' E 135°04'714.5
2018-Apr-23 20:30N 34°26' E 135°07'714.6
2018-Apr-23 20:00N 34°33' E 135°09'611.5
2018-Apr-23 19:31N 34°39' E 135°10'  
2018-Apr-20 14:16N 34°39' E 135°10'414.2
2018-Apr-20 14:00N 34°35' E 135°09'714.8
2018-Apr-20 13:31N 34°29' E 135°05'815.7
2018-Apr-20 13:01N 34°21' E 135°01'4 8.3
2018-Apr-20 12:31N 34°18' E 134°58'714.5
2018-Apr-20 12:00N 34°25' E 135°01'714.2
2018-Apr-20 11:30N 34°31' E 135°05'5 9.3
2018-Apr-20 11:01N 34°36' E 135°03'611.0
2018-Apr-20 10:30N 34°36' E 134°57'5 9.3
2018-Apr-20 10:01N 34°38' E 135°02'713.1
2018-Apr-20 09:30N 34°39' E 135°10'1 1.1
2018-Apr-20 09:00N 34°39' E 135°10'0 0.0
2018-Apr-20 02:27N 34°39' E 135°10'1 3.2
2018-Apr-20 02:00N 34°40' E 135°11'4 8.7
2018-Apr-20 01:30N 34°37' E 135°07'713.1
2018-Apr-20 01:00N 34°38' E 134°59'2 4.1
2018-Apr-20 00:31N 34°37' E 135°01'510.2
2018-Apr-20 00:00N 34°35' E 135°07'3 5.4
2018-Apr-19 23:30N 34°36' E 135°04'510.4
2018-Apr-19 23:00N 34°38' E 134°58'1 1.3
2018-Apr-19 22:30N 34°37' E 134°58'510.0
2018-Apr-19 22:00N 34°36' E 135°04'4 7.5
2018-Apr-19 21:31N 34°35' E 135°08'4 8.8
2018-Apr-19 21:00N 34°39' E 135°10'0 0.1
2018-Apr-19 20:30N 34°39' E 135°10'1 0.0
2018-Apr-17 20:58N 34°39' E 135°10'613.0
2018-Apr-17 20:31N 34°37' E 135°03'3 6.8
2018-Apr-17 20:00N 34°37' E 134°59'4 7.2
2018-Apr-17 19:30N 34°36' E 135°03'4 8.5
2018-Apr-17 19:00N 34°35' E 135°08'3 5.5
2018-Apr-17 18:30N 34°35' E 135°11'3 6.9
2018-Apr-17 18:01N 34°38' E 135°10'1 1.6
2018-Apr-17 17:30N 34°39' E 135°10'0 0.0
2018-Apr-17 17:01N 34°39' E 135°10'1 0.1
2018-Apr-17 08:19N 34°38' E 135°10'413.5
2018-Apr-17 08:01N 34°37' E 135°15'713.4
2018-Apr-17 07:31N 34°34' E 135°22'3 5.6
2018-Apr-17 07:00N 34°33' E 135°26'2 5.0
2018-Apr-17 06:30N 34°33' E 135°23'3 5.9
2018-Apr-17 06:00N 34°33' E 135°19'3 5.1
2018-Apr-17 05:30N 34°36' E 135°20'4 7.2
2018-Apr-17 05:01N 34°37' E 135°16'4 7.0
2018-Apr-17 04:30N 34°38' E 135°11'3 5.2
2018-Apr-17 04:01N 34°40' E 135°11'0 0.2
2018-Apr-17 03:31N 34°40' E 135°11'611.1
2018-Apr-17 03:00N 34°35' E 135°08'510.8
2018-Apr-17 02:30N 34°37' E 135°01'4 7.6
2018-Apr-17 02:00N 34°36' E 134°57'3 6.3
2018-Apr-17 01:31N 34°36' E 135°01'0 0.0
2018-Apr-17 01:00N 34°36' E 135°01'0 0.0
2018-Apr-17 00:30N 34°36' E 135°01'0 0.0
2018-Apr-16 23:59N 34°36' E 135°01'0 0.0
2018-Apr-16 23:30N 34°36' E 135°01'0 0.0
2018-Apr-16 23:00N 34°36' E 135°01'0 0.0
2018-Apr-16 22:29N 34°36' E 135°01'0 0.0
2018-Apr-16 22:00N 34°36' E 135°01'0 0.0
2018-Apr-16 21:30N 34°36' E 135°01'0 0.0
2018-Apr-16 21:00N 34°36' E 135°01'0 0.0
2018-Apr-16 20:30N 34°36' E 135°01'0 0.0
2018-Apr-16 20:01N 34°36' E 135°01'1 2.2
2018-Apr-16 19:30N 34°37' E 134°60'2 3.8
2018-Apr-16 19:01N 34°37' E 135°02'5 9.4
2018-Apr-16 18:30N 34°35' E 135°07'4 8.0
2018-Apr-16 18:01N 34°31' E 135°07'714.8
2018-Apr-16 17:30N 34°24' E 135°03'713.6
2018-Apr-16 17:01N 34°18' E 134°59'612.3
2018-Apr-16 16:30N 34°12' E 134°58'2 4.7
2018-Apr-16 16:01N 34°10' E 135°00'4 7.7
2018-Apr-16 15:30N 34°14' E 135°02'612.2
2018-Apr-16 15:00N 34°19' E 135°04'815.3
2018-Apr-16 14:30N 34°27' E 135°07'815.2
2018-Apr-16 14:00N 34°34' E 135°09'510.4
2018-Apr-16 13:30N 34°39' E 135°10'2 0.0
2018-Apr-14 19:44N 34°37' E 135°09'314.2
2018-Apr-14 19:31N 34°36' E 135°05'612.2
2018-Apr-14 19:00N 34°37' E 134°58'4 8.5
2018-Apr-14 18:30N 34°36' E 135°03'4 7.1
2018-Apr-14 18:00N 34°36' E 135°07'3 5.5
2018-Apr-14 17:30N 34°38' E 135°09'2 3.1
2018-Apr-14 17:00N 34°39' E 135°10'0 0.0
2018-Apr-14 16:30N 34°39' E 135°10'0 0.0
2018-Apr-14 05:30N 34°39' E 135°10'714.6
2018-Apr-14 05:01N 34°32' E 135°08'714.2
2018-Apr-14 04:31N 34°25' E 135°05'815.4
2018-Apr-14 04:01N 34°19' E 135°00'1 2.4
2018-Apr-14 03:30N 34°19' E 134°59'612.6
2018-Apr-14 03:00N 34°24' E 135°03'  
Track history (hours):
 
Tides and Currents Weather Stations Pressure Air Temp Water Temp Dewpoint Dewpoint Depression Visibility Wind Speed Wind Dir Waves Ship Positions

Naikai2

Last reported at 2018-Apr-24 02:56 UTC. Time now 2018-Apr-24 22:54 UTC.
Position N 34°39' E 135°10'.

Length 28 m; draft 2.2 m.

Type: Other ship. MMSI: 431000283.

Date/timePositionNaut miles runAvg speedWind from/ knotsBaromVisibWave heightAir tempDewpointWater temp
2018-Apr-24 02:56N 34°39' E 135°10'1 3.1
2018-Apr-24 02:30N 34°40' E 135°11'5 9.9
2018-Apr-24 02:00N 34°38' E 135°16'815.4
2018-Apr-24 01:31N 34°34' E 135°24'1 1.0
2018-Apr-24 01:00N 34°33' E 135°24'4 7.1
2018-Apr-24 00:30N 34°33' E 135°20'4 8.4
2018-Apr-24 00:00N 34°31' E 135°15'611.6
2018-Apr-23 23:30N 34°27' E 135°10'612.4
2018-Apr-23 23:00N 34°23' E 135°05'713.8
2018-Apr-23 22:30N 34°18' E 134°60'612.0
2018-Apr-23 22:00N 34°12' E 134°60'2 3.5
2018-Apr-23 21:30N 34°13' E 135°01'713.7
2018-Apr-23 21:01N 34°19' E 135°04'714.5
2018-Apr-23 20:30N 34°26' E 135°07'714.6
2018-Apr-23 20:00N 34°33' E 135°09'611.5
2018-Apr-23 19:31N 34°39' E 135°10'  
2018-Apr-20 14:16N 34°39' E 135°10'414.2
2018-Apr-20 14:00N 34°35' E 135°09'714.8
2018-Apr-20 13:31N 34°29' E 135°05'815.7
2018-Apr-20 13:01N 34°21' E 135°01'4 8.3
2018-Apr-20 12:31N 34°18' E 134°58'714.5
2018-Apr-20 12:00N 34°25' E 135°01'714.2
2018-Apr-20 11:30N 34°31' E 135°05'5 9.3
2018-Apr-20 11:01N 34°36' E 135°03'611.0
2018-Apr-20 10:30N 34°36' E 134°57'5 9.3
2018-Apr-20 10:01N 34°38' E 135°02'713.1
2018-Apr-20 09:30N 34°39' E 135°10'1 1.1
2018-Apr-20 09:00N 34°39' E 135°10'0 0.0
2018-Apr-20 02:27N 34°39' E 135°10'1 3.2
2018-Apr-20 02:00N 34°40' E 135°11'4 8.7
2018-Apr-20 01:30N 34°37' E 135°07'713.1
2018-Apr-20 01:00N 34°38' E 134°59'2 4.1
2018-Apr-20 00:31N 34°37' E 135°01'510.2
2018-Apr-20 00:00N 34°35' E 135°07'3 5.4
2018-Apr-19 23:30N 34°36' E 135°04'510.4
2018-Apr-19 23:00N 34°38' E 134°58'1 1.3
2018-Apr-19 22:30N 34°37' E 134°58'510.0
2018-Apr-19 22:00N 34°36' E 135°04'4 7.5
2018-Apr-19 21:31N 34°35' E 135°08'4 8.8
2018-Apr-19 21:00N 34°39' E 135°10'0 0.1
2018-Apr-19 20:30N 34°39' E 135°10'1 0.0
2018-Apr-17 20:58N 34°39' E 135°10'613.0
2018-Apr-17 20:31N 34°37' E 135°03'3 6.8
2018-Apr-17 20:00N 34°37' E 134°59'4 7.2
2018-Apr-17 19:30N 34°36' E 135°03'4 8.5
2018-Apr-17 19:00N 34°35' E 135°08'3 5.5
2018-Apr-17 18:30N 34°35' E 135°11'3 6.9
2018-Apr-17 18:01N 34°38' E 135°10'1 1.6
2018-Apr-17 17:30N 34°39' E 135°10'0 0.0
2018-Apr-17 17:01N 34°39' E 135°10'1 0.1
2018-Apr-17 08:19N 34°38' E 135°10'413.5
2018-Apr-17 08:01N 34°37' E 135°15'713.4
2018-Apr-17 07:31N 34°34' E 135°22'3 5.6
2018-Apr-17 07:00N 34°33' E 135°26'2 5.0
2018-Apr-17 06:30N 34°33' E 135°23'3 5.9
2018-Apr-17 06:00N 34°33' E 135°19'3 5.1
2018-Apr-17 05:30N 34°36' E 135°20'4 7.2
2018-Apr-17 05:01N 34°37' E 135°16'4 7.0
2018-Apr-17 04:30N 34°38' E 135°11'3 5.2
2018-Apr-17 04:01N 34°40' E 135°11'0 0.2
2018-Apr-17 03:31N 34°40' E 135°11'611.1
2018-Apr-17 03:00N 34°35' E 135°08'510.8
2018-Apr-17 02:30N 34°37' E 135°01'4 7.6
2018-Apr-17 02:00N 34°36' E 134°57'3 6.3
2018-Apr-17 01:31N 34°36' E 135°01'0 0.0
2018-Apr-17 01:00N 34°36' E 135°01'0 0.0
2018-Apr-17 00:30N 34°36' E 135°01'0 0.0
2018-Apr-16 23:59N 34°36' E 135°01'0 0.0
2018-Apr-16 23:30N 34°36' E 135°01'0 0.0
2018-Apr-16 23:00N 34°36' E 135°01'0 0.0
2018-Apr-16 22:29N 34°36' E 135°01'0 0.0
2018-Apr-16 22:00N 34°36' E 135°01'0 0.0
2018-Apr-16 21:30N 34°36' E 135°01'0 0.0
2018-Apr-16 21:00N 34°36' E 135°01'0 0.0
2018-Apr-16 20:30N 34°36' E 135°01'0 0.0
2018-Apr-16 20:01N 34°36' E 135°01'1 2.2
2018-Apr-16 19:30N 34°37' E 134°60'2 3.8
2018-Apr-16 19:01N 34°37' E 135°02'5 9.4
2018-Apr-16 18:30N 34°35' E 135°07'4 8.0
2018-Apr-16 18:01N 34°31' E 135°07'714.8
2018-Apr-16 17:30N 34°24' E 135°03'713.6
2018-Apr-16 17:01N 34°18' E 134°59'612.3
2018-Apr-16 16:30N 34°12' E 134°58'2 4.7
2018-Apr-16 16:01N 34°10' E 135°00'4 7.7
2018-Apr-16 15:30N 34°14' E 135°02'612.2
2018-Apr-16 15:00N 34°19' E 135°04'815.3
2018-Apr-16 14:30N 34°27' E 135°07'815.2
2018-Apr-16 14:00N 34°34' E 135°09'510.4
2018-Apr-16 13:30N 34°39' E 135°10'2 0.0
2018-Apr-14 19:44N 34°37' E 135°09'314.2
2018-Apr-14 19:31N 34°36' E 135°05'612.2
2018-Apr-14 19:00N 34°37' E 134°58'4 8.5
2018-Apr-14 18:30N 34°36' E 135°03'4 7.1
2018-Apr-14 18:00N 34°36' E 135°07'3 5.5
2018-Apr-14 17:30N 34°38' E 135°09'2 3.1
2018-Apr-14 17:00N 34°39' E 135°10'0 0.0
2018-Apr-14 16:30N 34°39' E 135°10'0 0.0
2018-Apr-14 05:30N 34°39' E 135°10'714.6
2018-Apr-14 05:01N 34°32' E 135°08'714.2
2018-Apr-14 04:31N 34°25' E 135°05'815.4
2018-Apr-14 04:01N 34°19' E 135°00'1 2.4
2018-Apr-14 03:30N 34°19' E 134°59'612.6
2018-Apr-14 03:00N 34°24' E 135°03'  

Dump ship's entire track history